createdAt,value
2019-04-29T00:00:55.193Z,1012.92
2019-04-29T00:03:55.449Z,1012.96
2019-04-29T00:06:55.610Z,1012.94
2019-04-29T00:09:55.843Z,1012.97
2019-04-29T00:12:56.058Z,1013.02
2019-04-29T00:15:56.272Z,1013.02
2019-04-29T00:18:56.512Z,1012.99
2019-04-29T00:21:56.722Z,1012.96
2019-04-29T00:24:56.941Z,1012.95
2019-04-29T00:27:57.153Z,1012.96
2019-04-29T00:30:57.385Z,1012.97
2019-04-29T00:33:57.593Z,1012.97
2019-04-29T00:36:57.820Z,1012.95
2019-04-29T00:39:58.082Z,1012.98
2019-04-29T00:42:58.327Z,1012.98
2019-04-29T00:45:58.578Z,1013.03
2019-04-29T00:48:58.794Z,1013.06
2019-04-29T00:51:59.053Z,1013.08
2019-04-29T00:54:59.300Z,1013.10
2019-04-29T00:57:59.553Z,1013.07
2019-04-29T01:00:59.804Z,1013.05
2019-04-29T01:04:00.066Z,1013.11
2019-04-29T01:07:00.327Z,1013.12
2019-04-29T01:10:00.556Z,1013.11
2019-04-29T01:13:00.866Z,1013.09
2019-04-29T01:16:01.127Z,1013.10
2019-04-29T01:19:03.906Z,1013.16
2019-04-29T01:22:01.685Z,1013.04
2019-04-29T01:25:02.009Z,1013.15
2019-04-29T01:28:02.260Z,1013.14
2019-04-29T01:31:02.574Z,1013.20
2019-04-29T01:34:02.851Z,1013.10
2019-04-29T01:37:03.175Z,1013.21
2019-04-29T01:40:03.470Z,1013.18
2019-04-29T01:43:03.782Z,1013.19
2019-04-29T01:46:04.072Z,1013.22
2019-04-29T01:49:04.363Z,1013.22
2019-04-29T01:52:04.631Z,1013.24
2019-04-29T01:55:04.895Z,1013.28
2019-04-29T01:58:05.135Z,1013.29
2019-04-29T02:01:05.423Z,1013.35
2019-04-29T02:04:05.717Z,1013.36
2019-04-29T02:07:05.956Z,1013.35
2019-04-29T02:10:06.223Z,1013.33
2019-04-29T02:13:06.478Z,1013.33
2019-04-29T02:16:06.763Z,1013.27
2019-04-29T02:19:07.038Z,1013.18
2019-04-29T02:22:07.324Z,1013.32
2019-04-29T02:25:07.633Z,1013.28
2019-04-29T02:28:07.899Z,1013.28
2019-04-29T02:31:08.193Z,1013.26
2019-04-29T02:34:15.639Z,1013.23
2019-04-29T02:37:08.762Z,1013.25
2019-04-29T02:40:09.078Z,1013.26
2019-04-29T02:43:09.368Z,1013.19
2019-04-29T02:46:09.702Z,1013.20
2019-04-29T02:49:09.991Z,1013.28
2019-04-29T02:52:10.340Z,1013.26
2019-04-29T02:55:10.626Z,1013.09
2019-04-29T02:58:12.631Z,1013.18
2019-04-29T03:01:11.230Z,1013.20
2019-04-29T03:04:11.535Z,1013.17
2019-04-29T03:07:11.853Z,1013.12
2019-04-29T03:10:12.154Z,1013.09
2019-04-29T03:13:12.495Z,1013.13
2019-04-29T03:16:12.751Z,1013.18
2019-04-29T03:19:13.078Z,1013.12
2019-04-29T03:22:13.371Z,1013.12
2019-04-29T03:25:13.667Z,1013.13
2019-04-29T03:28:13.946Z,1013.15
2019-04-29T03:31:14.232Z,1013.11
2019-04-29T03:34:14.595Z,1013.12
2019-04-29T03:37:14.860Z,1013.12
2019-04-29T03:40:15.200Z,1013.13
2019-04-29T03:43:15.466Z,1013.15
2019-04-29T03:46:15.777Z,1013.16
2019-04-29T03:49:16.077Z,1013.12
2019-04-29T03:52:16.363Z,1013.14
2019-04-29T03:55:16.681Z,1013.21
2019-04-29T03:58:16.960Z,1013.25
2019-04-29T04:01:17.395Z,1013.27
2019-04-29T04:04:17.595Z,1013.35
2019-04-29T04:07:17.896Z,1013.34
2019-04-29T04:10:18.195Z,1013.30
2019-04-29T04:13:18.480Z,1013.30
2019-04-29T04:16:18.758Z,1013.36
2019-04-29T04:19:19.028Z,1013.42
2019-04-29T04:22:19.323Z,1013.34
2019-04-29T04:25:19.642Z,1013.46
2019-04-29T04:28:19.959Z,1013.43
2019-04-29T04:31:20.256Z,1013.41
2019-04-29T04:34:20.539Z,1013.44
2019-04-29T04:37:20.848Z,1013.41
2019-04-29T04:40:21.141Z,1013.41
2019-04-29T04:43:21.461Z,1013.42
2019-04-29T04:46:21.748Z,1013.54
2019-04-29T04:49:22.069Z,1013.43
2019-04-29T04:52:22.324Z,1013.54
2019-04-29T04:55:22.617Z,1013.57
2019-04-29T04:58:22.887Z,1013.54
2019-04-29T05:01:23.170Z,1013.58
2019-04-29T05:04:23.435Z,1013.59
2019-04-29T05:07:23.679Z,1013.68
2019-04-29T05:10:23.929Z,1013.76
2019-04-29T05:13:28.367Z,1013.77
2019-04-29T05:16:24.421Z,1013.81
2019-04-29T05:19:24.674Z,1013.80
2019-04-29T05:22:24.883Z,1013.86
2019-04-29T05:25:25.115Z,1013.79
2019-04-29T05:28:25.318Z,1013.90
2019-04-29T05:31:25.553Z,1013.97
2019-04-29T05:34:25.733Z,1013.99
2019-04-29T05:37:25.927Z,1013.93
2019-04-29T05:40:26.093Z,1014.03
2019-04-29T05:43:27.082Z,1014.01
2019-04-29T05:46:27.388Z,1014.06
2019-04-29T05:49:26.522Z,1014.03
2019-04-29T05:52:29.850Z,1014.09
2019-04-29T05:55:26.783Z,1014.08
2019-04-29T05:58:26.915Z,1014.10
2019-04-29T06:01:34.101Z,1014.05
2019-04-29T06:04:34.252Z,1014.15
2019-04-29T06:07:34.442Z,1014.18
2019-04-29T06:10:27.548Z,1014.16
2019-04-29T06:13:27.701Z,1014.21
2019-04-29T06:16:27.797Z,1014.16
2019-04-29T06:19:27.901Z,1014.19
2019-04-29T06:22:37.943Z,1014.21
2019-04-29T06:25:29.096Z,1014.17
2019-04-29T06:28:28.297Z,1014.21
2019-04-29T06:31:28.260Z,1014.21
2019-04-29T06:34:28.343Z,1014.32
2019-04-29T06:37:28.395Z,1014.35
2019-04-29T06:40:30.616Z,1014.34
2019-04-29T06:43:30.712Z,1014.38
2019-04-29T06:46:28.447Z,1014.41
2019-04-29T06:49:28.477Z,1014.48
2019-04-29T06:52:28.429Z,1014.53
2019-04-29T06:55:28.362Z,1014.57
2019-04-29T06:58:28.277Z,1014.63
2019-04-29T07:01:28.171Z,1014.59
2019-04-29T07:04:30.753Z,1014.52
2019-04-29T07:07:28.874Z,1014.55
2019-04-29T07:10:27.704Z,1014.51
2019-04-29T07:13:27.520Z,1014.46
2019-04-29T07:16:31.632Z,1014.44
2019-04-29T07:19:28.347Z,1014.52
2019-04-29T07:22:27.545Z,1014.50
2019-04-29T07:25:28.886Z,1014.59
2019-04-29T07:28:26.617Z,1014.58
2019-04-29T07:31:28.266Z,1014.74
2019-04-29T07:34:28.891Z,1014.75
2019-04-29T07:37:29.744Z,1014.71
2019-04-29T07:40:26.546Z,1014.68
2019-04-29T07:43:25.228Z,1014.75
2019-04-29T07:46:24.880Z,1014.70
2019-04-29T07:49:24.477Z,1014.63
2019-04-29T07:52:24.089Z,1014.68
2019-04-29T07:55:25.906Z,1014.75
2019-04-29T07:58:27.358Z,1014.69
2019-04-29T08:01:24.604Z,1014.70
2019-04-29T08:04:22.328Z,1014.71
2019-04-29T08:07:21.844Z,1014.71
2019-04-29T08:10:23.532Z,1014.85
2019-04-29T08:13:20.837Z,1014.97
2019-04-29T08:16:20.254Z,1014.92
2019-04-29T08:19:19.662Z,1014.84
2019-04-29T08:22:22.790Z,1014.71
2019-04-29T08:25:21.708Z,1014.71
2019-04-29T08:28:18.729Z,1014.74
2019-04-29T08:31:21.073Z,1014.76
2019-04-29T08:34:18.802Z,1014.72
2019-04-29T08:37:16.911Z,1014.75
2019-04-29T08:40:16.696Z,1014.64
2019-04-29T08:43:15.901Z,1014.52
2019-04-29T08:46:15.245Z,1014.62
2019-04-29T08:49:14.780Z,1014.53
2019-04-29T08:52:13.241Z,1014.61
2019-04-29T08:55:12.737Z,1014.52
2019-04-29T08:58:12.914Z,1014.54
2019-04-29T09:01:11.768Z,1014.50
2019-04-29T09:04:11.293Z,1014.49
2019-04-29T09:07:12.639Z,1014.40
2019-04-29T09:10:10.340Z,1014.38
2019-04-29T09:13:09.915Z,1014.37
2019-04-29T09:16:09.447Z,1014.37
2019-04-29T09:19:08.998Z,1014.39
2019-04-29T09:22:08.574Z,1014.41
2019-04-29T09:25:08.179Z,1014.36
2019-04-29T09:28:07.748Z,1014.36
2019-04-29T09:31:07.338Z,1014.40
2019-04-29T09:34:07.134Z,1014.36
2019-04-29T09:37:06.506Z,1014.32
2019-04-29T09:40:06.113Z,1014.35
2019-04-29T09:43:15.177Z,1014.31
2019-04-29T09:46:06.311Z,1014.32
2019-04-29T09:49:04.905Z,1014.23
2019-04-29T09:52:04.469Z,1014.21
2019-04-29T09:55:05.762Z,1014.23
2019-04-29T09:58:03.630Z,1014.26
2019-04-29T10:01:03.221Z,1014.30
2019-04-29T10:04:02.776Z,1014.33
2019-04-29T10:07:02.326Z,1014.35
2019-04-29T10:10:06.165Z,1014.29
2019-04-29T10:13:01.335Z,1014.21
2019-04-29T10:16:02.158Z,1014.20
2019-04-29T10:19:00.763Z,1014.15
2019-04-29T10:21:59.734Z,1014.19
2019-04-29T10:24:59.167Z,1014.10
2019-04-29T10:27:58.614Z,1014.08
2019-04-29T10:30:58.000Z,1014.01
2019-04-29T10:33:57.390Z,1014.13
2019-04-29T10:36:56.748Z,1014.19
2019-04-29T10:39:56.015Z,1013.94
2019-04-29T10:42:55.311Z,1013.88
2019-04-29T10:45:54.571Z,1013.95
2019-04-29T10:48:53.876Z,1014.13
2019-04-29T10:51:53.128Z,1013.95
2019-04-29T10:54:55.336Z,1013.89
2019-04-29T10:57:51.605Z,1013.80
2019-04-29T11:00:52.789Z,1013.76
2019-04-29T11:03:51.075Z,1013.76
2019-04-29T11:06:49.302Z,1013.78
2019-04-29T11:09:50.776Z,1013.73
2019-04-29T11:12:47.799Z,1013.64
2019-04-29T11:15:49.451Z,1013.63
2019-04-29T11:18:46.201Z,1013.59
2019-04-29T11:21:45.461Z,1013.53
2019-04-29T11:24:44.679Z,1013.41
2019-04-29T11:27:43.950Z,1013.43
2019-04-29T11:30:43.219Z,1013.44
2019-04-29T11:33:42.537Z,1013.31
2019-04-29T11:36:44.209Z,1013.33
2019-04-29T11:39:41.231Z,1013.35
2019-04-29T11:42:41.789Z,1013.35
2019-04-29T11:45:40.399Z,1013.35
2019-04-29T11:48:39.399Z,1013.31
2019-04-29T11:51:57.056Z,1013.21
2019-04-29T11:54:39.276Z,1013.21
2019-04-29T11:57:41.000Z,1013.27
2019-04-29T12:00:37.230Z,1013.26
2019-04-29T12:03:37.502Z,1013.22
2019-04-29T12:06:36.174Z,1013.21
2019-04-29T12:09:35.690Z,1013.19
2019-04-29T12:12:35.211Z,1013.14
2019-04-29T12:15:34.765Z,1013.11
2019-04-29T12:18:38.091Z,1013.15
2019-04-29T12:21:34.932Z,1013.10
2019-04-29T12:24:40.562Z,1013.15
2019-04-29T12:27:33.192Z,1013.07
2019-04-29T12:30:34.602Z,1013.12
2019-04-29T12:33:36.728Z,1013.08
2019-04-29T12:36:36.769Z,1013.04
2019-04-29T12:39:42.741Z,1013.08
2019-04-29T12:42:35.716Z,1013.02
2019-04-29T12:45:32.209Z,1012.96
2019-04-29T12:48:30.943Z,1012.98
2019-04-29T12:51:30.686Z,1013.06
2019-04-29T12:54:30.515Z,1013.05
2019-04-29T12:57:30.172Z,1013.02
2019-04-29T13:00:29.926Z,1012.98
2019-04-29T13:03:31.029Z,1012.99
2019-04-29T13:06:39.100Z,1012.93
2019-04-29T13:09:30.169Z,1012.97
2019-04-29T13:12:30.414Z,1012.86
2019-04-29T13:15:28.680Z,1012.90
2019-04-29T13:18:28.443Z,1012.86
2019-04-29T13:21:28.236Z,1012.80
2019-04-29T13:24:28.261Z,1012.79
2019-04-29T13:27:27.769Z,1012.75
2019-04-29T13:30:27.521Z,1012.66
2019-04-29T13:33:27.258Z,1012.63
2019-04-29T13:36:27.424Z,1012.70
2019-04-29T13:39:39.130Z,1012.64
2019-04-29T13:42:27.493Z,1012.61
2019-04-29T13:45:26.488Z,1012.55
2019-04-29T13:48:25.970Z,1012.49
2019-04-29T13:51:35.249Z,1012.47
2019-04-29T13:54:26.484Z,1012.45
2019-04-29T13:57:25.236Z,1012.39
2019-04-29T14:00:26.304Z,1012.47
2019-04-29T14:03:24.904Z,1012.43
2019-04-29T14:06:24.614Z,1012.38
2019-04-29T14:09:24.423Z,1012.30
2019-04-29T14:12:47.975Z,1012.31
2019-04-29T14:15:25.090Z,1012.28
2019-04-29T14:18:23.875Z,1012.29
2019-04-29T14:21:25.653Z,1012.32
2019-04-29T14:24:24.549Z,1012.30
2019-04-29T14:27:24.984Z,1012.34
2019-04-29T14:30:37.320Z,1012.35
2019-04-29T14:33:25.792Z,1012.39
2019-04-29T14:36:24.744Z,1012.41
2019-04-29T14:39:36.626Z,1012.34
2019-04-29T14:42:25.635Z,1012.37
2019-04-29T14:45:23.503Z,1012.36
2019-04-29T14:48:22.363Z,1012.38
2019-04-29T14:51:22.251Z,1012.44
2019-04-29T14:54:22.125Z,1012.31
2019-04-29T14:57:21.978Z,1012.36
2019-04-29T15:00:21.937Z,1012.32
2019-04-29T15:03:21.773Z,1012.32
2019-04-29T15:06:21.623Z,1012.23
2019-04-29T15:09:21.460Z,1012.22
2019-04-29T15:12:23.629Z,1012.23
2019-04-29T15:15:21.079Z,1012.17
2019-04-29T15:18:38.693Z,1012.21
2019-04-29T15:21:32.219Z,1012.27
2019-04-29T15:24:21.595Z,1012.27
2019-04-29T15:27:20.471Z,1012.21
2019-04-29T15:30:20.350Z,1012.26
2019-04-29T15:33:20.189Z,1012.29
2019-04-29T15:36:20.095Z,1012.26
2019-04-29T15:39:20.226Z,1012.19
2019-04-29T15:42:19.806Z,1012.25
2019-04-29T15:45:19.649Z,1012.23
2019-04-29T15:48:19.502Z,1012.20
2019-04-29T15:51:19.361Z,1012.25
2019-04-29T15:54:19.213Z,1012.16
2019-04-29T15:57:19.076Z,1012.20
2019-04-29T16:00:22.180Z,1012.17
2019-04-29T16:03:20.359Z,1012.19
2019-04-29T16:06:21.373Z,1012.21
2019-04-29T16:09:18.507Z,1012.18
2019-04-29T16:12:18.372Z,1012.18
2019-04-29T16:15:18.219Z,1012.12
2019-04-29T16:18:18.084Z,1012.18
2019-04-29T16:21:17.952Z,1012.17
2019-04-29T16:24:26.266Z,1012.25
2019-04-29T16:27:18.648Z,1012.25
2019-04-29T16:30:18.919Z,1012.26
2019-04-29T16:33:17.397Z,1012.22
2019-04-29T16:36:17.230Z,1012.09
2019-04-29T16:39:17.117Z,1012.14
2019-04-29T16:42:17.003Z,1012.12
2019-04-29T16:45:16.921Z,1012.14
2019-04-29T16:48:16.779Z,1012.15
2019-04-29T16:51:16.904Z,1012.15
2019-04-29T16:54:20.384Z,1012.19
2019-04-29T16:57:17.409Z,1012.22
2019-04-29T17:00:16.318Z,1012.24
2019-04-29T17:03:16.209Z,1012.18
2019-04-29T17:06:16.120Z,1012.19
2019-04-29T17:09:22.820Z,1012.22
2019-04-29T17:12:16.935Z,1012.16
2019-04-29T17:15:24.691Z,1012.22
2019-04-29T17:18:16.699Z,1012.21
2019-04-29T17:21:22.660Z,1012.21
2019-04-29T17:24:22.641Z,1012.26
2019-04-29T17:27:22.592Z,1012.26
2019-04-29T17:30:22.594Z,1012.34
2019-04-29T17:33:25.870Z,1012.35
2019-04-29T17:36:23.007Z,1012.30
2019-04-29T17:39:16.418Z,1012.30
2019-04-29T17:42:15.362Z,1012.30
2019-04-29T17:45:30.719Z,1012.36
2019-04-29T17:48:18.357Z,1012.32
2019-04-29T17:51:15.202Z,1012.38
2019-04-29T17:54:15.894Z,1012.29
2019-04-29T17:57:27.837Z,1012.34
2019-04-29T18:00:15.945Z,1012.39
2019-04-29T18:03:15.297Z,1012.43
2019-04-29T18:06:17.251Z,1012.40
2019-04-29T18:09:15.867Z,1012.39
2019-04-29T18:12:14.931Z,1012.38
2019-04-29T18:15:17.718Z,1012.39
2019-04-29T18:18:17.368Z,1012.42
2019-04-29T18:21:14.938Z,1012.44
2019-04-29T18:24:15.334Z,1012.39
2019-04-29T18:27:15.317Z,1012.36
2019-04-29T18:30:18.099Z,1012.48
2019-04-29T18:33:18.963Z,1012.54
2019-04-29T18:36:23.739Z,1012.53
2019-04-29T18:39:15.939Z,1012.54
2019-04-29T18:42:15.817Z,1012.50
2019-04-29T18:45:15.579Z,1012.51
2019-04-29T18:48:16.971Z,1012.55
2019-04-29T18:51:15.397Z,1012.51
2019-04-29T18:54:13.775Z,1012.52
2019-04-29T18:57:26.850Z,1012.51
2019-04-29T19:00:19.386Z,1012.55
2019-04-29T19:03:14.899Z,1012.59
2019-04-29T19:06:15.124Z,1012.62
2019-04-29T19:09:18.508Z,1012.63
2019-04-29T19:12:14.564Z,1012.69
2019-04-29T19:15:15.447Z,1012.68
2019-04-29T19:18:17.469Z,1012.69
2019-04-29T19:21:15.472Z,1012.71
2019-04-29T19:24:13.376Z,1012.74
2019-04-29T19:27:15.020Z,1012.74
2019-04-29T19:30:16.049Z,1012.69
2019-04-29T19:33:15.153Z,1012.81
2019-04-29T19:36:17.602Z,1012.77
2019-04-29T19:39:17.052Z,1012.79
2019-04-29T19:42:15.625Z,1012.84
2019-04-29T19:45:15.476Z,1012.84
2019-04-29T19:48:12.975Z,1012.86
2019-04-29T19:51:17.885Z,1012.88
2019-04-29T19:54:16.996Z,1012.90
2019-04-29T19:57:14.942Z,1012.84
2019-04-29T20:00:13.385Z,1012.85
2019-04-29T20:03:22.821Z,1012.86
2019-04-29T20:06:21.105Z,1012.84
2019-04-29T20:09:18.294Z,1012.81
2019-04-29T20:12:16.834Z,1012.84
2019-04-29T20:15:12.640Z,1012.92
2019-04-29T20:18:12.786Z,1012.89
2019-04-29T20:23:27.470Z,1012.88
2019-04-29T20:24:15.505Z,1012.86
2019-04-29T20:27:12.381Z,1012.94
2019-04-29T20:30:17.553Z,1012.91
2019-04-29T20:33:13.272Z,1012.82
2019-04-29T20:36:12.273Z,1012.87
2019-04-29T20:39:16.270Z,1012.80
2019-04-29T20:42:13.204Z,1012.83
2019-04-29T20:45:12.216Z,1012.83
2019-04-29T20:48:16.210Z,1012.85
2019-04-29T20:51:14.116Z,1012.86
2019-04-29T20:54:15.895Z,1012.86
2019-04-29T20:57:20.388Z,1012.86
2019-04-29T21:00:12.962Z,1012.95
2019-04-29T21:03:11.913Z,1012.88
2019-04-29T21:06:11.664Z,1012.92
2019-04-29T21:09:11.658Z,1012.92
2019-04-29T21:12:11.564Z,1012.86
2019-04-29T21:15:14.998Z,1012.88
2019-04-29T21:18:14.627Z,1012.91
2019-04-29T21:21:11.382Z,1012.86
2019-04-29T21:24:14.144Z,1012.88
2019-04-29T21:27:15.965Z,1012.91
2019-04-29T21:30:12.188Z,1012.90
2019-04-29T21:33:17.850Z,1012.90
2019-04-29T21:36:12.086Z,1012.92
2019-04-29T21:39:11.071Z,1012.88
2019-04-29T21:42:11.017Z,1012.89
2019-04-29T21:45:10.955Z,1012.96
2019-04-29T21:48:10.886Z,1012.92
2019-04-29T21:51:12.353Z,1012.89
2019-04-29T21:54:14.097Z,1012.89
2019-04-29T21:57:10.745Z,1012.91
2019-04-29T22:00:10.677Z,1012.91
2019-04-29T22:03:10.649Z,1012.89
2019-04-29T22:06:10.570Z,1012.91
2019-04-29T22:09:10.540Z,1012.92
2019-04-29T22:12:14.197Z,1012.95
2019-04-29T22:15:11.400Z,1012.92
2019-04-29T22:18:13.937Z,1012.88
2019-04-29T22:21:15.031Z,1012.93
2019-04-29T22:24:11.198Z,1012.92
2019-04-29T22:27:10.143Z,1012.94
2019-04-29T22:30:14.192Z,1012.96
2019-04-29T22:33:11.012Z,1012.95
2019-04-29T22:36:13.809Z,1012.91
2019-04-29T22:39:09.904Z,1012.86
2019-04-29T22:42:09.784Z,1012.90
2019-04-29T22:45:09.739Z,1012.87
2019-04-29T22:48:14.783Z,1012.90
2019-04-29T22:51:15.102Z,1012.90
2019-04-29T22:54:10.513Z,1012.90
2019-04-29T22:57:09.470Z,1012.85
2019-04-29T23:00:09.387Z,1012.79
2019-04-29T23:03:09.352Z,1012.84
2019-04-29T23:06:09.331Z,1012.86
2019-04-29T23:09:12.069Z,1012.83
2019-04-29T23:12:09.687Z,1012.87
2019-04-29T23:15:09.144Z,1012.87
2019-04-29T23:18:09.111Z,1012.84
2019-04-29T23:21:09.050Z,1012.80
2019-04-29T23:24:13.408Z,1012.77
2019-04-29T23:27:11.619Z,1012.78
2019-04-29T23:30:13.591Z,1012.72
2019-04-29T23:33:09.852Z,1012.72
2019-04-29T23:36:09.673Z,1012.69
2019-04-29T23:39:08.743Z,1012.80
2019-04-29T23:42:12.289Z,1012.77
2019-04-29T23:45:08.649Z,1012.76
2019-04-29T23:48:19.833Z,1012.75
2019-04-29T23:51:09.631Z,1012.73
2019-04-29T23:54:08.608Z,1012.71
2019-04-29T23:57:08.637Z,1012.74
